sensor_id;sensor_type;location;lat;lon;timestamp;pressure;altitude;pressure_sealevel;temperature
65823;BMP180;52585;47.566;19.056;2023-04-19T00:00:40;100357.20;;;13.60
65823;BMP180;52585;47.566;19.056;2023-04-19T00:03:08;100354.40;;;13.64
65823;BMP180;52585;47.566;19.056;2023-04-19T00:05:35;100354.80;;;13.66
65823;BMP180;52585;47.566;19.056;2023-04-19T00:08:05;100350.80;;;13.62
65823;BMP180;52585;47.566;19.056;2023-04-19T00:10:39;100348.00;;;13.62
65823;BMP180;52585;47.566;19.056;2023-04-19T00:13:05;100344.80;;;13.60
65823;BMP180;52585;47.566;19.056;2023-04-19T00:15:31;100340.00;;;13.60
65823;BMP180;52585;47.566;19.056;2023-04-19T00:17:59;100340.60;;;13.60
65823;BMP180;52585;47.566;19.056;2023-04-19T00:20:25;100338.40;;;13.60
65823;BMP180;52585;47.566;19.056;2023-04-19T00:22:51;100332.20;;;13.60
65823;BMP180;52585;47.566;19.056;2023-04-19T00:25:17;100333.40;;;13.60
65823;BMP180;52585;47.566;19.056;2023-04-19T00:27:45;100329.40;;;13.60
65823;BMP180;52585;47.566;19.056;2023-04-19T00:30:12;100325.20;;;13.60
65823;BMP180;52585;47.566;19.056;2023-04-19T00:32:38;100324.00;;;13.60
65823;BMP180;52585;47.566;19.056;2023-04-19T00:35:06;100321.80;;;13.50
65823;BMP180;52585;47.566;19.056;2023-04-19T00:37:32;100317.60;;;13.50
65823;BMP180;52585;47.566;19.056;2023-04-19T00:39:58;100312.80;;;13.50
65823;BMP180;52585;47.566;19.056;2023-04-19T00:42:26;100316.80;;;13.50
65823;BMP180;52585;47.566;19.056;2023-04-19T00:44:55;100313.60;;;13.50
65823;BMP180;52585;47.566;19.056;2023-04-19T00:47:23;100311.40;;;13.48
65823;BMP180;52585;47.566;19.056;2023-04-19T00:49:49;100308.60;;;13.40
65823;BMP180;52585;47.566;19.056;2023-04-19T00:52:15;100306.20;;;13.40
65823;BMP180;52585;47.566;19.056;2023-04-19T00:54:44;100305.80;;;13.40
65823;BMP180;52585;47.566;19.056;2023-04-19T00:57:10;100305.20;;;13.30
65823;BMP180;52585;47.566;19.056;2023-04-19T00:59:40;100307.20;;;13.30
65823;BMP180;52585;47.566;19.056;2023-04-19T01:02:08;100306.20;;;13.28
65823;BMP180;52585;47.566;19.056;2023-04-19T01:04:34;100304.80;;;13.20
65823;BMP180;52585;47.566;19.056;2023-04-19T01:07:01;100304.40;;;13.10
65823;BMP180;52585;47.566;19.056;2023-04-19T01:09:30;100297.60;;;13.10
65823;BMP180;52585;47.566;19.056;2023-04-19T01:11:55;100294.00;;;13.00
65823;BMP180;52585;47.566;19.056;2023-04-19T01:14:21;100292.20;;;12.98
65823;BMP180;52585;47.566;19.056;2023-04-19T01:16:47;100293.20;;;12.90
65823;BMP180;52585;47.566;19.056;2023-04-19T01:19:12;100289.40;;;12.88
65823;BMP180;52585;47.566;19.056;2023-04-19T01:21:38;100284.40;;;12.80
65823;BMP180;52585;47.566;19.056;2023-04-19T01:24:05;100284.20;;;12.80
65823;BMP180;52585;47.566;19.056;2023-04-19T01:26:31;100291.40;;;12.70
65823;BMP180;52585;47.566;19.056;2023-04-19T01:28:57;100283.00;;;12.70
65823;BMP180;52585;47.566;19.056;2023-04-19T01:31:22;100277.60;;;12.60
65823;BMP180;52585;47.566;19.056;2023-04-19T01:33:48;100278.20;;;12.60
65823;BMP180;52585;47.566;19.056;2023-04-19T01:36:13;100276.40;;;12.58
65823;BMP180;52585;47.566;19.056;2023-04-19T01:38:39;100270.00;;;12.50
65823;BMP180;52585;47.566;19.056;2023-04-19T01:41:05;100267.00;;;12.50
65823;BMP180;52585;47.566;19.056;2023-04-19T01:43:32;100264.00;;;12.40
65823;BMP180;52585;47.566;19.056;2023-04-19T01:45:57;100261.40;;;12.40
65823;BMP180;52585;47.566;19.056;2023-04-19T01:48:23;100262.20;;;12.30
65823;BMP180;52585;47.566;19.056;2023-04-19T01:50:48;100256.40;;;12.30
65823;BMP180;52585;47.566;19.056;2023-04-19T01:53:14;100258.20;;;12.30
65823;BMP180;52585;47.566;19.056;2023-04-19T01:55:39;100252.80;;;12.20
65823;BMP180;52585;47.566;19.056;2023-04-19T01:58:05;100248.00;;;12.20
65823;BMP180;52585;47.566;19.056;2023-04-19T02:00:31;100250.40;;;12.20
65823;BMP180;52585;47.566;19.056;2023-04-19T02:02:57;100248.20;;;12.20
65823;BMP180;52585;47.566;19.056;2023-04-19T02:05:22;100249.60;;;12.20
65823;BMP180;52585;47.566;19.056;2023-04-19T02:07:48;100246.60;;;12.20
65823;BMP180;52585;47.566;19.056;2023-04-19T02:10:13;100249.00;;;12.20
65823;BMP180;52585;47.566;19.056;2023-04-19T02:12:40;100244.00;;;12.20
65823;BMP180;52585;47.566;19.056;2023-04-19T02:15:06;100246.00;;;12.20
65823;BMP180;52585;47.566;19.056;2023-04-19T02:17:32;100240.60;;;12.20
65823;BMP180;52585;47.566;19.056;2023-04-19T02:19:57;100237.80;;;12.20
65823;BMP180;52585;47.566;19.056;2023-04-19T02:22:23;100239.40;;;12.14
65823;BMP180;52585;47.566;19.056;2023-04-19T02:24:50;100239.00;;;12.10
65823;BMP180;52585;47.566;19.056;2023-04-19T02:27:16;100239.40;;;12.10
65823;BMP180;52585;47.566;19.056;2023-04-19T02:29:42;100239.60;;;12.10
65823;BMP180;52585;47.566;19.056;2023-04-19T02:32:11;100238.40;;;12.10
65823;BMP180;52585;47.566;19.056;2023-04-19T02:34:37;100239.20;;;12.10
65823;BMP180;52585;47.566;19.056;2023-04-19T02:37:02;100237.00;;;12.10
65823;BMP180;52585;47.566;19.056;2023-04-19T02:39:28;100233.60;;;12.10
65823;BMP180;52585;47.566;19.056;2023-04-19T02:41:54;100232.60;;;12.08
65823;BMP180;52585;47.566;19.056;2023-04-19T02:44:21;100228.60;;;12.00
65823;BMP180;52585;47.566;19.056;2023-04-19T02:46:51;100227.20;;;12.00
65823;BMP180;52585;47.566;19.056;2023-04-19T02:49:17;100224.80;;;12.00
65823;BMP180;52585;47.566;19.056;2023-04-19T02:51:43;100225.00;;;12.00
65823;BMP180;52585;47.566;19.056;2023-04-19T02:54:10;100222.20;;;12.00
65823;BMP180;52585;47.566;19.056;2023-04-19T02:56:36;100220.00;;;12.00
65823;BMP180;52585;47.566;19.056;2023-04-19T02:59:03;100217.00;;;12.00
65823;BMP180;52585;47.566;19.056;2023-04-19T03:01:29;100214.20;;;11.96
65823;BMP180;52585;47.566;19.056;2023-04-19T03:03:56;100214.20;;;11.90
65823;BMP180;52585;47.566;19.056;2023-04-19T03:06:21;100209.40;;;11.90
65823;BMP180;52585;47.566;19.056;2023-04-19T03:08:47;100210.20;;;11.90
65823;BMP180;52585;47.566;19.056;2023-04-19T03:11:15;100208.00;;;11.90
65823;BMP180;52585;47.566;19.056;2023-04-19T03:13:41;100203.80;;;11.90
65823;BMP180;52585;47.566;19.056;2023-04-19T03:16:07;100195.80;;;11.90
65823;BMP180;52585;47.566;19.056;2023-04-19T03:18:33;100196.00;;;11.80
65823;BMP180;52585;47.566;19.056;2023-04-19T03:20:59;100186.80;;;11.80
65823;BMP180;52585;47.566;19.056;2023-04-19T03:23:25;100191.20;;;11.80
65823;BMP180;52585;47.566;19.056;2023-04-19T03:25:52;100183.00;;;11.70
65823;BMP180;52585;47.566;19.056;2023-04-19T03:28:18;100183.60;;;11.70
65823;BMP180;52585;47.566;19.056;2023-04-19T03:30:47;100181.00;;;11.64
65823;BMP180;52585;47.566;19.056;2023-04-19T03:33:12;100182.80;;;11.60
65823;BMP180;52585;47.566;19.056;2023-04-19T03:35:38;100184.40;;;11.60
65823;BMP180;52585;47.566;19.056;2023-04-19T03:38:03;100179.20;;;11.60
65823;BMP180;52585;47.566;19.056;2023-04-19T03:40:32;100178.00;;;11.60
65823;BMP180;52585;47.566;19.056;2023-04-19T03:42:58;100180.20;;;11.56
65823;BMP180;52585;47.566;19.056;2023-04-19T03:45:24;100182.60;;;11.50
65823;BMP180;52585;47.566;19.056;2023-04-19T03:47:50;100184.80;;;11.50
65823;BMP180;52585;47.566;19.056;2023-04-19T03:50:16;100186.00;;;11.50
65823;BMP180;52585;47.566;19.056;2023-04-19T03:52:42;100185.40;;;11.46
65823;BMP180;52585;47.566;19.056;2023-04-19T03:55:09;100185.40;;;11.40
65823;BMP180;52585;47.566;19.056;2023-04-19T03:57:35;100188.00;;;11.40
65823;BMP180;52585;47.566;19.056;2023-04-19T04:00:00;100181.60;;;11.40
65823;BMP180;52585;47.566;19.056;2023-04-19T04:02:26;100183.80;;;11.40
65823;BMP180;52585;47.566;19.056;2023-04-19T04:04:55;100178.20;;;11.40
65823;BMP180;52585;47.566;19.056;2023-04-19T04:07:21;100177.40;;;11.40
65823;BMP180;52585;47.566;19.056;2023-04-19T04:09:48;100176.00;;;11.40
65823;BMP180;52585;47.566;19.056;2023-04-19T04:12:14;100176.20;;;11.40
65823;BMP180;52585;47.566;19.056;2023-04-19T04:14:40;100172.00;;;11.36
65823;BMP180;52585;47.566;19.056;2023-04-19T04:17:05;100174.80;;;11.34
65823;BMP180;52585;47.566;19.056;2023-04-19T04:19:31;100178.00;;;11.36
65823;BMP180;52585;47.566;19.056;2023-04-19T04:21:56;100175.40;;;11.40
65823;BMP180;52585;47.566;19.056;2023-04-19T04:24:22;100180.20;;;11.36
65823;BMP180;52585;47.566;19.056;2023-04-19T04:26:48;100180.00;;;11.40
65823;BMP180;52585;47.566;19.056;2023-04-19T04:29:17;100176.20;;;11.40
65823;BMP180;52585;47.566;19.056;2023-04-19T04:31:42;100178.00;;;11.40
65823;BMP180;52585;47.566;19.056;2023-04-19T04:34:08;100172.00;;;11.42
65823;BMP180;52585;47.566;19.056;2023-04-19T04:36:35;100169.60;;;11.40
65823;BMP180;52585;47.566;19.056;2023-04-19T04:39:04;100172.80;;;11.42
65823;BMP180;52585;47.566;19.056;2023-04-19T04:41:30;100167.80;;;11.50
65823;BMP180;52585;47.566;19.056;2023-04-19T04:43:59;100169.60;;;11.50
65823;BMP180;52585;47.566;19.056;2023-04-19T04:46:26;100167.60;;;11.50
65823;BMP180;52585;47.566;19.056;2023-04-19T04:48:52;100169.00;;;11.50
65823;BMP180;52585;47.566;19.056;2023-04-19T04:51:18;100165.80;;;11.56
65823;BMP180;52585;47.566;19.056;2023-04-19T04:53:44;100169.80;;;11.58
65823;BMP180;52585;47.566;19.056;2023-04-19T04:56:10;100173.60;;;11.60
65823;BMP180;52585;47.566;19.056;2023-04-19T04:58:35;100169.60;;;11.60
65823;BMP180;52585;47.566;19.056;2023-04-19T05:01:01;100164.80;;;11.60
65823;BMP180;52585;47.566;19.056;2023-04-19T05:03:26;100165.00;;;11.60
65823;BMP180;52585;47.566;19.056;2023-04-19T05:05:52;100162.40;;;11.60
65823;BMP180;52585;47.566;19.056;2023-04-19T05:08:17;100162.40;;;11.60
65823;BMP180;52585;47.566;19.056;2023-04-19T05:10:43;100159.40;;;11.60
65823;BMP180;52585;47.566;19.056;2023-04-19T05:13:08;100162.20;;;11.60
65823;BMP180;52585;47.566;19.056;2023-04-19T05:15:34;100161.80;;;11.60
65823;BMP180;52585;47.566;19.056;2023-04-19T05:17:59;100156.00;;;11.64
65823;BMP180;52585;47.566;19.056;2023-04-19T05:20:25;100156.40;;;11.68
65823;BMP180;52585;47.566;19.056;2023-04-19T05:22:56;100158.80;;;11.70
65823;BMP180;52585;47.566;19.056;2023-04-19T05:25:23;100159.80;;;11.70
65823;BMP180;52585;47.566;19.056;2023-04-19T05:27:48;100157.60;;;11.70
65823;BMP180;52585;47.566;19.056;2023-04-19T05:30:14;100154.20;;;11.74
65823;BMP180;52585;47.566;19.056;2023-04-19T05:32:39;100160.80;;;11.80
65823;BMP180;52585;47.566;19.056;2023-04-19T05:35:06;100162.80;;;11.82
65823;BMP180;52585;47.566;19.056;2023-04-19T05:37:32;100159.60;;;11.90
65823;BMP180;52585;47.566;19.056;2023-04-19T05:39:57;100160.00;;;11.90
65823;BMP180;52585;47.566;19.056;2023-04-19T05:42:23;100160.80;;;12.00
65823;BMP180;52585;47.566;19.056;2023-04-19T05:44:49;100155.40;;;12.00
65823;BMP180;52585;47.566;19.056;2023-04-19T05:47:14;100157.20;;;12.10
65823;BMP180;52585;47.566;19.056;2023-04-19T05:49:42;100154.80;;;12.10
65823;BMP180;52585;47.566;19.056;2023-04-19T05:52:08;100154.00;;;12.20
65823;BMP180;52585;47.566;19.056;2023-04-19T05:54:34;100157.00;;;12.20
65823;BMP180;52585;47.566;19.056;2023-04-19T05:57:01;100159.60;;;12.30
65823;BMP180;52585;47.566;19.056;2023-04-19T05:59:27;100157.20;;;12.30
65823;BMP180;52585;47.566;19.056;2023-04-19T06:01:53;100158.20;;;12.40
65823;BMP180;52585;47.566;19.056;2023-04-19T06:04:21;100152.40;;;12.40
65823;BMP180;52585;47.566;19.056;2023-04-19T06:06:46;100155.20;;;12.50
65823;BMP180;52585;47.566;19.056;2023-04-19T06:09:12;100153.80;;;12.50
65823;BMP180;52585;47.566;19.056;2023-04-19T06:11:42;100152.40;;;12.50
65823;BMP180;52585;47.566;19.056;2023-04-19T06:14:07;100155.00;;;12.60
65823;BMP180;52585;47.566;19.056;2023-04-19T06:16:34;100154.40;;;12.70
65823;BMP180;52585;47.566;19.056;2023-04-19T06:18:59;100155.20;;;12.70
65823;BMP180;52585;47.566;19.056;2023-04-19T06:21:25;100151.40;;;12.80
65823;BMP180;52585;47.566;19.056;2023-04-19T06:23:51;100150.00;;;12.82
65823;BMP180;52585;47.566;19.056;2023-04-19T06:26:16;100140.00;;;12.90
65823;BMP180;52585;47.566;19.056;2023-04-19T06:28:42;100136.60;;;12.90
65823;BMP180;52585;47.566;19.056;2023-04-19T06:31:07;100135.80;;;13.00
65823;BMP180;52585;47.566;19.056;2023-04-19T06:33:33;100138.60;;;13.00
65823;BMP180;52585;47.566;19.056;2023-04-19T06:35:58;100136.80;;;13.10
65823;BMP180;52585;47.566;19.056;2023-04-19T06:38:24;100140.20;;;13.10
65823;BMP180;52585;47.566;19.056;2023-04-19T06:40:50;100136.60;;;13.20
65823;BMP180;52585;47.566;19.056;2023-04-19T06:43:15;100132.80;;;13.20
65823;BMP180;52585;47.566;19.056;2023-04-19T06:45:41;100128.20;;;13.30
65823;BMP180;52585;47.566;19.056;2023-04-19T06:48:06;100128.00;;;13.30
65823;BMP180;52585;47.566;19.056;2023-04-19T06:50:32;100124.00;;;13.38
65823;BMP180;52585;47.566;19.056;2023-04-19T06:52:58;100125.20;;;13.40
65823;BMP180;52585;47.566;19.056;2023-04-19T06:55:23;100124.80;;;13.50
65823;BMP180;52585;47.566;19.056;2023-04-19T06:57:49;100121.80;;;13.50
65823;BMP180;52585;47.566;19.056;2023-04-19T07:00:15;100125.80;;;13.60
65823;BMP180;52585;47.566;19.056;2023-04-19T07:02:40;100122.60;;;13.60
65823;BMP180;52585;47.566;19.056;2023-04-19T07:05:06;100124.00;;;13.70
65823;BMP180;52585;47.566;19.056;2023-04-19T07:07:32;100123.60;;;13.80
65823;BMP180;52585;47.566;19.056;2023-04-19T07:09:58;100120.00;;;13.82
65823;BMP180;52585;47.566;19.056;2023-04-19T07:12:24;100118.20;;;13.90
65823;BMP180;52585;47.566;19.056;2023-04-19T07:14:49;100115.60;;;14.00
65823;BMP180;52585;47.566;19.056;2023-04-19T07:17:21;100119.60;;;14.00
65823;BMP180;52585;47.566;19.056;2023-04-19T07:19:47;100109.80;;;14.10
65823;BMP180;52585;47.566;19.056;2023-04-19T07:22:14;100110.20;;;14.20
65823;BMP180;52585;47.566;19.056;2023-04-19T07:24:40;100109.60;;;14.22
65823;BMP180;52585;47.566;19.056;2023-04-19T07:27:09;100110.40;;;14.30
65823;BMP180;52585;47.566;19.056;2023-04-19T07:29:35;100112.80;;;14.40
65823;BMP180;52585;47.566;19.056;2023-04-19T07:32:01;100106.00;;;14.44
65823;BMP180;52585;47.566;19.056;2023-04-19T07:34:27;100115.60;;;14.50
65823;BMP180;52585;47.566;19.056;2023-04-19T07:36:52;100112.60;;;14.60
65823;BMP180;52585;47.566;19.056;2023-04-19T07:39:18;100113.00;;;14.60
65823;BMP180;52585;47.566;19.056;2023-04-19T07:41:44;100111.20;;;14.64
65823;BMP180;52585;47.566;19.056;2023-04-19T07:44:10;100111.40;;;14.70
65823;BMP180;52585;47.566;19.056;2023-04-19T07:46:36;100110.20;;;14.80
65823;BMP180;52585;47.566;19.056;2023-04-19T07:49:02;100111.40;;;14.90
65823;BMP180;52585;47.566;19.056;2023-04-19T07:51:27;100110.40;;;14.92
65823;BMP180;52585;47.566;19.056;2023-04-19T07:53:53;100108.20;;;15.00
65823;BMP180;52585;47.566;19.056;2023-04-19T07:56:19;100108.80;;;15.04
65823;BMP180;52585;47.566;19.056;2023-04-19T07:58:44;100113.00;;;15.10
65823;BMP180;52585;47.566;19.056;2023-04-19T08:01:10;100110.40;;;15.20
65823;BMP180;52585;47.566;19.056;2023-04-19T08:03:36;100110.80;;;15.20
65823;BMP180;52585;47.566;19.056;2023-04-19T08:06:05;100108.20;;;15.30
65823;BMP180;52585;47.566;19.056;2023-04-19T08:08:34;100105.20;;;15.30
65823;BMP180;52585;47.566;19.056;2023-04-19T08:11:00;100105.40;;;15.32
65823;BMP180;52585;47.566;19.056;2023-04-19T08:13:29;100107.60;;;15.40
65823;BMP180;52585;47.566;19.056;2023-04-19T08:15:55;100107.40;;;15.40
65823;BMP180;52585;47.566;19.056;2023-04-19T08:18:21;100110.00;;;15.48
65823;BMP180;52585;47.566;19.056;2023-04-19T08:20:49;100107.40;;;15.50
65823;BMP180;52585;47.566;19.056;2023-04-19T08:23:16;100106.80;;;15.56
65823;BMP180;52585;47.566;19.056;2023-04-19T08:25:42;100107.60;;;15.64
65823;BMP180;52585;47.566;19.056;2023-04-19T08:28:08;100105.40;;;15.70
65823;BMP180;52585;47.566;19.056;2023-04-19T08:30:33;100102.00;;;15.78
65823;BMP180;52585;47.566;19.056;2023-04-19T08:32:59;100103.20;;;15.80
65823;BMP180;52585;47.566;19.056;2023-04-19T08:35:26;100097.20;;;15.80
65823;BMP180;52585;47.566;19.056;2023-04-19T08:37:51;100098.00;;;15.80
65823;BMP180;52585;47.566;19.056;2023-04-19T08:40:17;100098.00;;;15.80
65823;BMP180;52585;47.566;19.056;2023-04-19T08:42:43;100098.00;;;15.80
65823;BMP180;52585;47.566;19.056;2023-04-19T08:45:09;100095.60;;;15.80
65823;BMP180;52585;47.566;19.056;2023-04-19T08:47:39;100091.60;;;15.80
65823;BMP180;52585;47.566;19.056;2023-04-19T08:50:07;100092.00;;;15.80
65823;BMP180;52585;47.566;19.056;2023-04-19T08:52:37;100087.00;;;15.80
65823;BMP180;52585;47.566;19.056;2023-04-19T08:55:05;100089.20;;;15.88
65823;BMP180;52585;47.566;19.056;2023-04-19T08:57:32;100087.60;;;15.90
65823;BMP180;52585;47.566;19.056;2023-04-19T09:00:03;100088.20;;;15.90
65823;BMP180;52585;47.566;19.056;2023-04-19T09:03:06;100088.40;;;15.90
65823;BMP180;52585;47.566;19.056;2023-04-19T09:05:32;100085.60;;;15.90
65823;BMP180;52585;47.566;19.056;2023-04-19T09:08:25;100086.40;;;15.90
65823;BMP180;52585;47.566;19.056;2023-04-19T09:10:58;100088.00;;;16.00
65823;BMP180;52585;47.566;19.056;2023-04-19T09:13:25;100088.20;;;16.06
65823;BMP180;52585;47.566;19.056;2023-04-19T09:15:51;100080.60;;;16.10
65823;BMP180;52585;47.566;19.056;2023-04-19T09:18:18;100077.60;;;16.20
65823;BMP180;52585;47.566;19.056;2023-04-19T09:20:45;100075.00;;;16.28
65823;BMP180;52585;47.566;19.056;2023-04-19T09:23:17;100081.80;;;16.30
65823;BMP180;52585;47.566;19.056;2023-04-19T09:25:58;100078.80;;;16.40
65823;BMP180;52585;47.566;19.056;2023-04-19T09:28:29;100071.20;;;16.40
65823;BMP180;52585;47.566;19.056;2023-04-19T09:30:56;100073.60;;;16.42
65823;BMP180;52585;47.566;19.056;2023-04-19T09:33:37;100078.00;;;16.40
65823;BMP180;52585;47.566;19.056;2023-04-19T09:36:05;100070.60;;;16.42
65823;BMP180;52585;47.566;19.056;2023-04-19T09:38:50;100070.20;;;16.50
65823;BMP180;52585;47.566;19.056;2023-04-19T09:41:16;100072.20;;;16.50
65823;BMP180;52585;47.566;19.056;2023-04-19T09:43:42;100067.80;;;16.52
65823;BMP180;52585;47.566;19.056;2023-04-19T09:46:08;100063.60;;;16.60
65823;BMP180;52585;47.566;19.056;2023-04-19T09:48:34;100057.20;;;16.62
65823;BMP180;52585;47.566;19.056;2023-04-19T09:51:01;100062.20;;;16.70
65823;BMP180;52585;47.566;19.056;2023-04-19T09:53:30;100065.60;;;16.72
65823;BMP180;52585;47.566;19.056;2023-04-19T09:55:58;100061.00;;;16.80
65823;BMP180;52585;47.566;19.056;2023-04-19T09:58:23;100056.40;;;16.80
65823;BMP180;52585;47.566;19.056;2023-04-19T10:00:49;100057.20;;;16.90
65823;BMP180;52585;47.566;19.056;2023-04-19T10:03:18;100064.60;;;16.90
65823;BMP180;52585;47.566;19.056;2023-04-19T10:05:46;100063.80;;;17.00
65823;BMP180;52585;47.566;19.056;2023-04-19T10:08:13;100058.60;;;17.00
65823;BMP180;52585;47.566;19.056;2023-04-19T10:10:40;100063.20;;;17.04
65823;BMP180;52585;47.566;19.056;2023-04-19T10:13:10;100057.80;;;17.10
65823;BMP180;52585;47.566;19.056;2023-04-19T10:15:36;100058.80;;;17.10
65823;BMP180;52585;47.566;19.056;2023-04-19T10:18:04;100058.80;;;17.18
65823;BMP180;52585;47.566;19.056;2023-04-19T10:20:49;100060.20;;;17.20
65823;BMP180;52585;47.566;19.056;2023-04-19T10:23:16;100058.40;;;17.30
65823;BMP180;52585;47.566;19.056;2023-04-19T10:25:46;100051.60;;;17.30
65823;BMP180;52585;47.566;19.056;2023-04-19T10:28:14;100050.00;;;17.30
65823;BMP180;52585;47.566;19.056;2023-04-19T10:31:18;100053.00;;;17.36
65823;BMP180;52585;47.566;19.056;2023-04-19T10:33:47;100043.40;;;17.40
65823;BMP180;52585;47.566;19.056;2023-04-19T10:36:17;100046.20;;;17.40
65823;BMP180;52585;47.566;19.056;2023-04-19T10:38:45;100045.40;;;17.50
65823;BMP180;52585;47.566;19.056;2023-04-19T10:41:19;100042.80;;;17.50
65823;BMP180;52585;47.566;19.056;2023-04-19T10:48:58;100040.40;;;17.60
65823;BMP180;52585;47.566;19.056;2023-04-19T10:51:32;100034.80;;;17.60
65823;BMP180;52585;47.566;19.056;2023-04-19T10:57:01;100031.40;;;17.70
65823;BMP180;52585;47.566;19.056;2023-04-19T10:59:39;100033.20;;;17.70
65823;BMP180;52585;47.566;19.056;2023-04-19T11:07:14;100025.20;;;17.80
65823;BMP180;52585;47.566;19.056;2023-04-19T11:09:47;100020.60;;;17.90
65823;BMP180;52585;47.566;19.056;2023-04-19T11:12:16;100017.20;;;17.90
65823;BMP180;52585;47.566;19.056;2023-04-19T11:14:45;100021.00;;;17.94
65823;BMP180;52585;47.566;19.056;2023-04-19T11:17:16;100017.00;;;17.90
65823;BMP180;52585;47.566;19.056;2023-04-19T11:22:45;100020.20;;;17.90
65823;BMP180;52585;47.566;19.056;2023-04-19T11:25:15;100016.60;;;17.80
65823;BMP180;52585;47.566;19.056;2023-04-19T11:27:44;100011.00;;;17.80
65823;BMP180;52585;47.566;19.056;2023-04-19T11:30:15;100009.80;;;17.80
65823;BMP180;52585;47.566;19.056;2023-04-19T11:32:46;100010.60;;;17.80
65823;BMP180;52585;47.566;19.056;2023-04-19T11:35:13;100012.40;;;17.80
65823;BMP180;52585;47.566;19.056;2023-04-19T11:37:39;100015.20;;;17.80
65823;BMP180;52585;47.566;19.056;2023-04-19T11:40:06;100015.20;;;17.90
65823;BMP180;52585;47.566;19.056;2023-04-19T11:42:34;100007.20;;;17.90
65823;BMP180;52585;47.566;19.056;2023-04-19T11:45:00;100009.60;;;17.90
65823;BMP180;52585;47.566;19.056;2023-04-19T11:47:26;100005.40;;;17.92
65823;BMP180;52585;47.566;19.056;2023-04-19T11:49:54;100005.80;;;18.00
65823;BMP180;52585;47.566;19.056;2023-04-19T11:52:25;100003.00;;;18.00
65823;BMP180;52585;47.566;19.056;2023-04-19T11:54:53;100001.40;;;18.06
65823;BMP180;52585;47.566;19.056;2023-04-19T11:57:46;100003.00;;;18.00
65823;BMP180;52585;47.566;19.056;2023-04-19T12:00:13;100003.00;;;18.00
65823;BMP180;52585;47.566;19.056;2023-04-19T12:02:42;100007.00;;;18.00
65823;BMP180;52585;47.566;19.056;2023-04-19T12:05:14;100009.40;;;17.90
65823;BMP180;52585;47.566;19.056;2023-04-19T12:08:06;100016.00;;;17.82
65823;BMP180;52585;47.566;19.056;2023-04-19T12:10:36;100012.00;;;17.80
65823;BMP180;52585;47.566;19.056;2023-04-19T12:13:16;100008.40;;;17.70
65823;BMP180;52585;47.566;19.056;2023-04-19T12:15:44;100015.40;;;17.60
65823;BMP180;52585;47.566;19.056;2023-04-19T12:18:09;100009.20;;;17.50
65823;BMP180;52585;47.566;19.056;2023-04-19T12:20:42;100006.40;;;17.50
65823;BMP180;52585;47.566;19.056;2023-04-19T12:23:07;100004.80;;;17.40
65823;BMP180;52585;47.566;19.056;2023-04-19T12:25:35;100007.40;;;17.30
65823;BMP180;52585;47.566;19.056;2023-04-19T12:28:02;100004.20;;;17.20
65823;BMP180;52585;47.566;19.056;2023-04-19T12:30:29;100001.20;;;17.20
65823;BMP180;52585;47.566;19.056;2023-04-19T12:32:54;99999.40;;;17.10
65823;BMP180;52585;47.566;19.056;2023-04-19T12:35:22;100001.20;;;17.10
65823;BMP180;52585;47.566;19.056;2023-04-19T12:37:48;100001.40;;;17.10
65823;BMP180;52585;47.566;19.056;2023-04-19T12:40:15;100001.60;;;17.06
65823;BMP180;52585;47.566;19.056;2023-04-19T12:42:40;100009.40;;;17.00
65823;BMP180;52585;47.566;19.056;2023-04-19T12:45:07;100004.80;;;17.00
65823;BMP180;52585;47.566;19.056;2023-04-19T12:47:32;99998.40;;;17.00
65823;BMP180;52585;47.566;19.056;2023-04-19T12:49:58;100001.40;;;17.00
65823;BMP180;52585;47.566;19.056;2023-04-19T12:52:23;100002.40;;;17.00
65823;BMP180;52585;47.566;19.056;2023-04-19T12:54:49;99998.00;;;17.00
65823;BMP180;52585;47.566;19.056;2023-04-19T12:57:14;99998.00;;;17.00
65823;BMP180;52585;47.566;19.056;2023-04-19T12:59:40;99995.80;;;17.00
65823;BMP180;52585;47.566;19.056;2023-04-19T13:02:06;99991.80;;;17.00
65823;BMP180;52585;47.566;19.056;2023-04-19T13:04:32;99991.60;;;17.00
65823;BMP180;52585;47.566;19.056;2023-04-19T13:06:57;99991.60;;;17.00
65823;BMP180;52585;47.566;19.056;2023-04-19T13:09:23;99988.60;;;17.00
65823;BMP180;52585;47.566;19.056;2023-04-19T13:11:49;99986.80;;;17.02
65823;BMP180;52585;47.566;19.056;2023-04-19T13:14:15;99987.80;;;17.00
65823;BMP180;52585;47.566;19.056;2023-04-19T13:16:40;99987.80;;;17.06
65823;BMP180;52585;47.566;19.056;2023-04-19T13:19:06;99988.00;;;17.08
65823;BMP180;52585;47.566;19.056;2023-04-19T13:21:32;99986.00;;;17.10
65823;BMP180;52585;47.566;19.056;2023-04-19T13:23:58;99985.40;;;17.10
65823;BMP180;52585;47.566;19.056;2023-04-19T13:26:24;99985.60;;;17.08
65823;BMP180;52585;47.566;19.056;2023-04-19T13:28:50;99985.60;;;17.10
65823;BMP180;52585;47.566;19.056;2023-04-19T13:31:16;99984.80;;;17.10
65823;BMP180;52585;47.566;19.056;2023-04-19T13:33:41;99981.80;;;17.10
65823;BMP180;52585;47.566;19.056;2023-04-19T13:36:07;99987.20;;;17.10
65823;BMP180;52585;47.566;19.056;2023-04-19T13:38:32;99989.60;;;17.10
65823;BMP180;52585;47.566;19.056;2023-04-19T13:40:58;99995.40;;;17.08
65823;BMP180;52585;47.566;19.056;2023-04-19T13:43:24;99994.60;;;17.00
65823;BMP180;52585;47.566;19.056;2023-04-19T13:45:50;99993.20;;;17.00
65823;BMP180;52585;47.566;19.056;2023-04-19T13:48:15;99995.00;;;17.00
65823;BMP180;52585;47.566;19.056;2023-04-19T13:50:41;99992.60;;;16.90
65823;BMP180;52585;47.566;19.056;2023-04-19T13:53:07;99990.60;;;16.92
65823;BMP180;52585;47.566;19.056;2023-04-19T13:55:33;99994.00;;;16.90
65823;BMP180;52585;47.566;19.056;2023-04-19T13:57:58;99985.80;;;16.90
65823;BMP180;52585;47.566;19.056;2023-04-19T14:00:24;99991.40;;;16.90
65823;BMP180;52585;47.566;19.056;2023-04-19T14:02:50;99985.40;;;16.90